sensor_id;sensor_type;location;lat;lon;timestamp;P1;durP1;ratioP1;P2;durP2;ratioP2
21038;SDS011;10678;51.002;4.786;2024-01-25T00:00:41;50.22;;;6.88;;
21038;SDS011;10678;51.002;4.786;2024-01-25T00:03:07;33.00;;;6.40;;
21038;SDS011;10678;51.002;4.786;2024-01-25T00:05:32;39.22;;;5.90;;
21038;SDS011;10678;51.002;4.786;2024-01-25T00:07:58;38.22;;;7.47;;
21038;SDS011;10678;51.002;4.786;2024-01-25T00:10:23;37.08;;;5.90;;
21038;SDS011;10678;51.002;4.786;2024-01-25T00:12:49;31.73;;;6.28;;
21038;SDS011;10678;51.002;4.786;2024-01-25T00:15:15;40.72;;;6.35;;
21038;SDS011;10678;51.002;4.786;2024-01-25T00:17:41;34.88;;;5.90;;
21038;SDS011;10678;51.002;4.786;2024-01-25T00:20:08;53.08;;;6.57;;
21038;SDS011;10678;51.002;4.786;2024-01-25T00:22:37;51.22;;;7.72;;
21038;SDS011;10678;51.002;4.786;2024-01-25T00:25:03;40.38;;;6.55;;
21038;SDS011;10678;51.002;4.786;2024-01-25T00:27:29;39.92;;;5.88;;
21038;SDS011;10678;51.002;4.786;2024-01-25T00:29:55;52.38;;;7.03;;
21038;SDS011;10678;51.002;4.786;2024-01-25T00:32:20;40.28;;;8.27;;
21038;SDS011;10678;51.002;4.786;2024-01-25T00:34:46;49.40;;;6.35;;
21038;SDS011;10678;51.002;4.786;2024-01-25T00:37:12;41.72;;;5.97;;
21038;SDS011;10678;51.002;4.786;2024-01-25T00:39:38;48.95;;;6.95;;
21038;SDS011;10678;51.002;4.786;2024-01-25T00:42:04;27.67;;;5.30;;
21038;SDS011;10678;51.002;4.786;2024-01-25T00:44:32;33.85;;;5.78;;
21038;SDS011;10678;51.002;4.786;2024-01-25T00:46:58;48.30;;;6.78;;
21038;SDS011;10678;51.002;4.786;2024-01-25T00:49:24;45.17;;;7.53;;
21038;SDS011;10678;51.002;4.786;2024-01-25T00:51:50;35.70;;;5.30;;
21038;SDS011;10678;51.002;4.786;2024-01-25T00:54:20;32.80;;;5.88;;
21038;SDS011;10678;51.002;4.786;2024-01-25T00:56:46;36.50;;;6.45;;
21038;SDS011;10678;51.002;4.786;2024-01-25T00:59:15;40.00;;;6.85;;
21038;SDS011;10678;51.002;4.786;2024-01-25T01:01:41;37.10;;;6.38;;
21038;SDS011;10678;51.002;4.786;2024-01-25T01:04:10;33.25;;;6.13;;
21038;SDS011;10678;51.002;4.786;2024-01-25T01:06:36;38.63;;;6.38;;
21038;SDS011;10678;51.002;4.786;2024-01-25T01:09:02;37.08;;;6.45;;
21038;SDS011;10678;51.002;4.786;2024-01-25T01:11:27;34.42;;;5.70;;
21038;SDS011;10678;51.002;4.786;2024-01-25T01:13:53;37.38;;;7.35;;
21038;SDS011;10678;51.002;4.786;2024-01-25T01:16:18;31.75;;;5.75;;
21038;SDS011;10678;51.002;4.786;2024-01-25T01:18:45;36.13;;;7.00;;
21038;SDS011;10678;51.002;4.786;2024-01-25T01:21:11;34.75;;;6.03;;
21038;SDS011;10678;51.002;4.786;2024-01-25T01:23:36;40.15;;;8.18;;
21038;SDS011;10678;51.002;4.786;2024-01-25T01:26:03;36.97;;;6.78;;
21038;SDS011;10678;51.002;4.786;2024-01-25T01:28:29;25.35;;;5.68;;
21038;SDS011;10678;51.002;4.786;2024-01-25T01:30:55;45.20;;;6.28;;
21038;SDS011;10678;51.002;4.786;2024-01-25T01:33:20;32.03;;;6.35;;
21038;SDS011;10678;51.002;4.786;2024-01-25T01:35:46;40.00;;;7.13;;
21038;SDS011;10678;51.002;4.786;2024-01-25T01:38:12;41.80;;;6.70;;
21038;SDS011;10678;51.002;4.786;2024-01-25T01:40:37;40.13;;;6.38;;
21038;SDS011;10678;51.002;4.786;2024-01-25T01:43:03;36.88;;;5.88;;
21038;SDS011;10678;51.002;4.786;2024-01-25T01:45:29;32.30;;;5.88;;
21038;SDS011;10678;51.002;4.786;2024-01-25T01:47:55;34.63;;;6.07;;
21038;SDS011;10678;51.002;4.786;2024-01-25T01:50:22;35.25;;;6.15;;
21038;SDS011;10678;51.002;4.786;2024-01-25T01:52:47;36.47;;;5.68;;
21038;SDS011;10678;51.002;4.786;2024-01-25T01:55:16;33.17;;;5.72;;
21038;SDS011;10678;51.002;4.786;2024-01-25T01:57:42;41.63;;;6.85;;
21038;SDS011;10678;51.002;4.786;2024-01-25T02:00:08;37.30;;;5.85;;
21038;SDS011;10678;51.002;4.786;2024-01-25T02:02:35;36.60;;;5.95;;
21038;SDS011;10678;51.002;4.786;2024-01-25T02:05:01;40.35;;;8.30;;
21038;SDS011;10678;51.002;4.786;2024-01-25T02:07:26;41.97;;;8.48;;
21038;SDS011;10678;51.002;4.786;2024-01-25T02:09:53;40.97;;;7.95;;
21038;SDS011;10678;51.002;4.786;2024-01-25T02:12:18;45.40;;;7.95;;
21038;SDS011;10678;51.002;4.786;2024-01-25T02:14:45;36.22;;;7.00;;
21038;SDS011;10678;51.002;4.786;2024-01-25T02:17:10;51.25;;;8.82;;
21038;SDS011;10678;51.002;4.786;2024-01-25T02:19:36;40.13;;;8.30;;
21038;SDS011;10678;51.002;4.786;2024-01-25T02:22:03;45.97;;;8.77;;
21038;SDS011;10678;51.002;4.786;2024-01-25T02:24:30;33.17;;;7.88;;
21038;SDS011;10678;51.002;4.786;2024-01-25T02:26:55;42.15;;;7.97;;
21038;SDS011;10678;51.002;4.786;2024-01-25T02:29:21;41.33;;;8.13;;
21038;SDS011;10678;51.002;4.786;2024-01-25T02:31:47;36.30;;;7.57;;
21038;SDS011;10678;51.002;4.786;2024-01-25T02:34:13;44.78;;;7.43;;
21038;SDS011;10678;51.002;4.786;2024-01-25T02:36:38;45.55;;;8.02;;
21038;SDS011;10678;51.002;4.786;2024-01-25T02:39:04;35.00;;;6.70;;
21038;SDS011;10678;51.002;4.786;2024-01-25T02:41:30;36.13;;;6.05;;
21038;SDS011;10678;51.002;4.786;2024-01-25T02:43:56;33.95;;;6.15;;
21038;SDS011;10678;51.002;4.786;2024-01-25T02:46:22;37.97;;;6.25;;
21038;SDS011;10678;51.002;4.786;2024-01-25T02:48:48;36.67;;;6.40;;
21038;SDS011;10678;51.002;4.786;2024-01-25T02:51:14;36.13;;;6.60;;
21038;SDS011;10678;51.002;4.786;2024-01-25T02:53:40;39.67;;;6.20;;
21038;SDS011;10678;51.002;4.786;2024-01-25T02:56:06;29.67;;;6.22;;
21038;SDS011;10678;51.002;4.786;2024-01-25T02:58:32;33.80;;;6.53;;
21038;SDS011;10678;51.002;4.786;2024-01-25T03:00:57;44.72;;;6.85;;
21038;SDS011;10678;51.002;4.786;2024-01-25T03:03:23;31.10;;;5.30;;
21038;SDS011;10678;51.002;4.786;2024-01-25T03:05:49;50.78;;;9.20;;
21038;SDS011;10678;51.002;4.786;2024-01-25T03:08:18;35.03;;;6.97;;
21038;SDS011;10678;51.002;4.786;2024-01-25T03:10:43;37.75;;;8.55;;
21038;SDS011;10678;51.002;4.786;2024-01-25T03:13:09;39.78;;;7.68;;
21038;SDS011;10678;51.002;4.786;2024-01-25T03:15:34;38.42;;;8.05;;
21038;SDS011;10678;51.002;4.786;2024-01-25T03:18:00;33.00;;;7.28;;
21038;SDS011;10678;51.002;4.786;2024-01-25T03:20:26;37.50;;;7.72;;
21038;SDS011;10678;51.002;4.786;2024-01-25T03:22:51;23.00;;;6.72;;
21038;SDS011;10678;51.002;4.786;2024-01-25T03:25:17;35.50;;;7.73;;
21038;SDS011;10678;51.002;4.786;2024-01-25T03:27:43;20.45;;;5.28;;
21038;SDS011;10678;51.002;4.786;2024-01-25T03:30:09;37.22;;;5.15;;
21038;SDS011;10678;51.002;4.786;2024-01-25T03:32:35;20.73;;;4.07;;
21038;SDS011;10678;51.002;4.786;2024-01-25T03:35:01;39.72;;;6.78;;
21038;SDS011;10678;51.002;4.786;2024-01-25T03:37:26;20.13;;;4.60;;
21038;SDS011;10678;51.002;4.786;2024-01-25T03:39:52;26.38;;;4.43;;
21038;SDS011;10678;51.002;4.786;2024-01-25T03:42:18;23.25;;;4.45;;
21038;SDS011;10678;51.002;4.786;2024-01-25T03:44:43;23.08;;;4.50;;
21038;SDS011;10678;51.002;4.786;2024-01-25T03:47:10;21.65;;;5.15;;
21038;SDS011;10678;51.002;4.786;2024-01-25T03:49:36;36.20;;;5.97;;
21038;SDS011;10678;51.002;4.786;2024-01-25T03:52:02;19.70;;;4.80;;
21038;SDS011;10678;51.002;4.786;2024-01-25T03:54:29;23.73;;;4.43;;
21038;SDS011;10678;51.002;4.786;2024-01-25T03:56:54;28.57;;;5.63;;
21038;SDS011;10678;51.002;4.786;2024-01-25T03:59:20;25.73;;;5.70;;
21038;SDS011;10678;51.002;4.786;2024-01-25T04:01:46;36.47;;;6.23;;
21038;SDS011;10678;51.002;4.786;2024-01-25T04:04:12;34.50;;;5.03;;
21038;SDS011;10678;51.002;4.786;2024-01-25T04:06:40;39.80;;;5.30;;
21038;SDS011;10678;51.002;4.786;2024-01-25T04:09:11;27.83;;;4.50;;
21038;SDS011;10678;51.002;4.786;2024-01-25T04:11:38;25.98;;;4.25;;
21038;SDS011;10678;51.002;4.786;2024-01-25T04:14:04;36.83;;;5.47;;
21038;SDS011;10678;51.002;4.786;2024-01-25T04:16:30;30.70;;;5.97;;
21038;SDS011;10678;51.002;4.786;2024-01-25T04:18:57;29.77;;;5.57;;
21038;SDS011;10678;51.002;4.786;2024-01-25T04:21:23;38.33;;;5.23;;
21038;SDS011;10678;51.002;4.786;2024-01-25T04:23:48;21.75;;;4.72;;
21038;SDS011;10678;51.002;4.786;2024-01-25T04:26:14;31.70;;;5.20;;
21038;SDS011;10678;51.002;4.786;2024-01-25T04:28:43;30.63;;;4.93;;
21038;SDS011;10678;51.002;4.786;2024-01-25T04:31:09;29.93;;;5.10;;
21038;SDS011;10678;51.002;4.786;2024-01-25T04:33:35;29.63;;;4.73;;
21038;SDS011;10678;51.002;4.786;2024-01-25T04:36:00;25.77;;;5.10;;
21038;SDS011;10678;51.002;4.786;2024-01-25T04:38:26;25.87;;;5.20;;
21038;SDS011;10678;51.002;4.786;2024-01-25T04:40:52;32.83;;;5.63;;
21038;SDS011;10678;51.002;4.786;2024-01-25T04:43:17;32.37;;;6.03;;
21038;SDS011;10678;51.002;4.786;2024-01-25T04:45:43;24.97;;;4.53;;
21038;SDS011;10678;51.002;4.786;2024-01-25T04:48:08;33.37;;;5.27;;
21038;SDS011;10678;51.002;4.786;2024-01-25T04:50:34;24.07;;;4.90;;
21038;SDS011;10678;51.002;4.786;2024-01-25T04:53:01;31.33;;;5.37;;
21038;SDS011;10678;51.002;4.786;2024-01-25T04:55:27;29.40;;;6.20;;
21038;SDS011;10678;51.002;4.786;2024-01-25T04:57:53;31.37;;;5.03;;
21038;SDS011;10678;51.002;4.786;2024-01-25T05:00:20;29.33;;;4.93;;
21038;SDS011;10678;51.002;4.786;2024-01-25T05:02:47;33.13;;;5.50;;
21038;SDS011;10678;51.002;4.786;2024-01-25T05:05:13;28.83;;;5.47;;
21038;SDS011;10678;51.002;4.786;2024-01-25T05:07:38;26.57;;;4.80;;
21038;SDS011;10678;51.002;4.786;2024-01-25T05:10:04;29.00;;;5.17;;
21038;SDS011;10678;51.002;4.786;2024-01-25T05:12:30;21.80;;;5.00;;
21038;SDS011;10678;51.002;4.786;2024-01-25T05:14:56;29.70;;;5.30;;
21038;SDS011;10678;51.002;4.786;2024-01-25T05:17:23;21.87;;;4.60;;
21038;SDS011;10678;51.002;4.786;2024-01-25T05:19:48;25.40;;;4.67;;
21038;SDS011;10678;51.002;4.786;2024-01-25T05:22:14;21.93;;;4.87;;
21038;SDS011;10678;51.002;4.786;2024-01-25T05:24:40;25.70;;;4.93;;
21038;SDS011;10678;51.002;4.786;2024-01-25T05:27:05;29.07;;;4.63;;
21038;SDS011;10678;51.002;4.786;2024-01-25T05:29:31;22.67;;;4.93;;
21038;SDS011;10678;51.002;4.786;2024-01-25T05:31:56;24.23;;;4.90;;
21038;SDS011;10678;51.002;4.786;2024-01-25T05:34:22;31.67;;;5.20;;
21038;SDS011;10678;51.002;4.786;2024-01-25T05:36:48;24.97;;;4.83;;
21038;SDS011;10678;51.002;4.786;2024-01-25T05:39:14;26.73;;;5.10;;
21038;SDS011;10678;51.002;4.786;2024-01-25T05:41:40;28.53;;;4.93;;
21038;SDS011;10678;51.002;4.786;2024-01-25T05:44:05;23.57;;;4.67;;
21038;SDS011;10678;51.002;4.786;2024-01-25T05:46:31;27.70;;;5.00;;
21038;SDS011;10678;51.002;4.786;2024-01-25T05:48:57;26.03;;;5.07;;
21038;SDS011;10678;51.002;4.786;2024-01-25T05:51:22;23.57;;;5.50;;
21038;SDS011;10678;51.002;4.786;2024-01-25T05:53:48;19.00;;;4.47;;
21038;SDS011;10678;51.002;4.786;2024-01-25T05:56:14;37.97;;;5.23;;
21038;SDS011;10678;51.002;4.786;2024-01-25T05:58:39;27.83;;;4.10;;
21038;SDS011;10678;51.002;4.786;2024-01-25T06:01:06;23.60;;;5.03;;
21038;SDS011;10678;51.002;4.786;2024-01-25T06:03:31;29.93;;;5.87;;
21038;SDS011;10678;51.002;4.786;2024-01-25T06:05:57;18.10;;;4.77;;
21038;SDS011;10678;51.002;4.786;2024-01-25T06:08:23;37.23;;;5.77;;
21038;SDS011;10678;51.002;4.786;2024-01-25T06:10:48;28.73;;;4.60;;
21038;SDS011;10678;51.002;4.786;2024-01-25T06:13:15;17.87;;;4.10;;
21038;SDS011;10678;51.002;4.786;2024-01-25T06:15:40;24.53;;;5.23;;
21038;SDS011;10678;51.002;4.786;2024-01-25T06:18:06;22.33;;;4.10;;
21038;SDS011;10678;51.002;4.786;2024-01-25T06:20:32;27.67;;;6.03;;
21038;SDS011;10678;51.002;4.786;2024-01-25T06:22:58;22.50;;;4.90;;
21038;SDS011;10678;51.002;4.786;2024-01-25T06:25:23;29.23;;;5.07;;
21038;SDS011;10678;51.002;4.786;2024-01-25T06:27:49;22.23;;;5.10;;
21038;SDS011;10678;51.002;4.786;2024-01-25T06:30:14;27.30;;;4.80;;
21038;SDS011;10678;51.002;4.786;2024-01-25T06:32:40;27.77;;;4.97;;
21038;SDS011;10678;51.002;4.786;2024-01-25T06:35:06;29.23;;;4.30;;
21038;SDS011;10678;51.002;4.786;2024-01-25T06:37:32;17.03;;;4.00;;
21038;SDS011;10678;51.002;4.786;2024-01-25T06:39:58;31.07;;;6.00;;
21038;SDS011;10678;51.002;4.786;2024-01-25T06:42:23;30.13;;;5.80;;
21038;SDS011;10678;51.002;4.786;2024-01-25T06:44:49;20.70;;;5.47;;
21038;SDS011;10678;51.002;4.786;2024-01-25T06:47:15;27.37;;;5.00;;
21038;SDS011;10678;51.002;4.786;2024-01-25T06:49:40;29.57;;;5.33;;
21038;SDS011;10678;51.002;4.786;2024-01-25T06:52:06;28.07;;;5.30;;
21038;SDS011;10678;51.002;4.786;2024-01-25T06:54:32;44.57;;;6.00;;
21038;SDS011;10678;51.002;4.786;2024-01-25T06:56:57;30.63;;;5.57;;
21038;SDS011;10678;51.002;4.786;2024-01-25T06:59:23;30.57;;;7.30;;
21038;SDS011;10678;51.002;4.786;2024-01-25T07:01:49;46.73;;;6.10;;
21038;SDS011;10678;51.002;4.786;2024-01-25T07:04:14;26.37;;;6.37;;
21038;SDS011;10678;51.002;4.786;2024-01-25T07:06:40;26.50;;;6.30;;
21038;SDS011;10678;51.002;4.786;2024-01-25T07:09:06;30.63;;;6.73;;
21038;SDS011;10678;51.002;4.786;2024-01-25T07:11:31;31.23;;;6.17;;
21038;SDS011;10678;51.002;4.786;2024-01-25T07:13:57;21.03;;;5.03;;
21038;SDS011;10678;51.002;4.786;2024-01-25T07:16:23;36.17;;;5.90;;
21038;SDS011;10678;51.002;4.786;2024-01-25T07:18:48;32.77;;;6.43;;
21038;SDS011;10678;51.002;4.786;2024-01-25T07:21:14;31.50;;;5.93;;
21038;SDS011;10678;51.002;4.786;2024-01-25T07:23:40;27.23;;;6.33;;
21038;SDS011;10678;51.002;4.786;2024-01-25T07:26:05;32.57;;;5.80;;
21038;SDS011;10678;51.002;4.786;2024-01-25T07:28:31;23.60;;;5.73;;
21038;SDS011;10678;51.002;4.786;2024-01-25T07:30:57;26.80;;;5.70;;
21038;SDS011;10678;51.002;4.786;2024-01-25T07:33:22;30.93;;;7.17;;
21038;SDS011;10678;51.002;4.786;2024-01-25T07:35:48;31.77;;;6.30;;
21038;SDS011;10678;51.002;4.786;2024-01-25T07:38:17;32.60;;;5.33;;
21038;SDS011;10678;51.002;4.786;2024-01-25T07:40:42;31.00;;;5.73;;
21038;SDS011;10678;51.002;4.786;2024-01-25T07:43:09;28.33;;;6.77;;
21038;SDS011;10678;51.002;4.786;2024-01-25T07:45:34;35.07;;;5.97;;
21038;SDS011;10678;51.002;4.786;2024-01-25T07:48:00;28.57;;;6.03;;
21038;SDS011;10678;51.002;4.786;2024-01-25T07:50:26;32.57;;;6.70;;
21038;SDS011;10678;51.002;4.786;2024-01-25T07:52:51;36.90;;;6.73;;
21038;SDS011;10678;51.002;4.786;2024-01-25T07:55:18;33.50;;;6.97;;
21038;SDS011;10678;51.002;4.786;2024-01-25T07:57:43;36.07;;;7.70;;
21038;SDS011;10678;51.002;4.786;2024-01-25T08:00:09;28.73;;;6.23;;
21038;SDS011;10678;51.002;4.786;2024-01-25T08:02:35;26.13;;;5.37;;
21038;SDS011;10678;51.002;4.786;2024-01-25T08:05:01;32.10;;;6.00;;
21038;SDS011;10678;51.002;4.786;2024-01-25T08:07:28;35.13;;;7.80;;
21038;SDS011;10678;51.002;4.786;2024-01-25T08:09:53;31.23;;;7.63;;
21038;SDS011;10678;51.002;4.786;2024-01-25T08:12:23;46.57;;;7.20;;
21038;SDS011;10678;51.002;4.786;2024-01-25T08:14:49;35.33;;;6.63;;
21038;SDS011;10678;51.002;4.786;2024-01-25T08:17:15;32.72;;;6.43;;
21038;SDS011;10678;51.002;4.786;2024-01-25T08:19:40;30.57;;;7.20;;
21038;SDS011;10678;51.002;4.786;2024-01-25T08:22:06;38.77;;;6.43;;
21038;SDS011;10678;51.002;4.786;2024-01-25T08:24:31;36.43;;;7.43;;
21038;SDS011;10678;51.002;4.786;2024-01-25T08:26:57;25.98;;;6.47;;
21038;SDS011;10678;51.002;4.786;2024-01-25T08:29:23;35.72;;;5.88;;
21038;SDS011;10678;51.002;4.786;2024-01-25T08:31:48;47.90;;;7.97;;
21038;SDS011;10678;51.002;4.786;2024-01-25T08:34:14;30.65;;;6.30;;
21038;SDS011;10678;51.002;4.786;2024-01-25T08:36:39;27.63;;;6.00;;
21038;SDS011;10678;51.002;4.786;2024-01-25T08:39:05;30.67;;;7.57;;
21038;SDS011;10678;51.002;4.786;2024-01-25T08:41:33;38.13;;;8.52;;
21038;SDS011;10678;51.002;4.786;2024-01-25T08:43:59;41.08;;;8.50;;
21038;SDS011;10678;51.002;4.786;2024-01-25T08:46:25;32.60;;;9.35;;
21038;SDS011;10678;51.002;4.786;2024-01-25T08:48:50;42.70;;;10.20;;
21038;SDS011;10678;51.002;4.786;2024-01-25T08:51:16;33.78;;;8.95;;
21038;SDS011;10678;51.002;4.786;2024-01-25T08:53:41;42.40;;;10.38;;
21038;SDS011;10678;51.002;4.786;2024-01-25T08:56:08;28.27;;;9.00;;
21038;SDS011;10678;51.002;4.786;2024-01-25T08:58:34;42.90;;;10.27;;
21038;SDS011;10678;51.002;4.786;2024-01-25T09:00:59;29.98;;;9.18;;
21038;SDS011;10678;51.002;4.786;2024-01-25T09:03:25;38.40;;;9.30;;
21038;SDS011;10678;51.002;4.786;2024-01-25T09:05:51;31.65;;;9.35;;
21038;SDS011;10678;51.002;4.786;2024-01-25T09:08:17;35.08;;;10.13;;
21038;SDS011;10678;51.002;4.786;2024-01-25T09:10:43;28.42;;;9.43;;
21038;SDS011;10678;51.002;4.786;2024-01-25T09:13:09;29.13;;;9.70;;
21038;SDS011;10678;51.002;4.786;2024-01-25T09:15:35;34.00;;;9.70;;
21038;SDS011;10678;51.002;4.786;2024-01-25T09:18:01;25.67;;;9.80;;
21038;SDS011;10678;51.002;4.786;2024-01-25T09:20:27;31.30;;;10.55;;
21038;SDS011;10678;51.002;4.786;2024-01-25T09:22:52;22.35;;;9.05;;
21038;SDS011;10678;51.002;4.786;2024-01-25T09:25:21;34.05;;;10.13;;
21038;SDS011;10678;51.002;4.786;2024-01-25T09:27:47;31.60;;;11.02;;
21038;SDS011;10678;51.002;4.786;2024-01-25T09:30:13;26.65;;;9.93;;
21038;SDS011;10678;51.002;4.786;2024-01-25T09:32:39;31.40;;;10.52;;
21038;SDS011;10678;51.002;4.786;2024-01-25T09:35:05;27.95;;;9.15;;
21038;SDS011;10678;51.002;4.786;2024-01-25T09:37:30;28.92;;;10.13;;
21038;SDS011;10678;51.002;4.786;2024-01-25T09:39:56;32.95;;;10.88;;
21038;SDS011;10678;51.002;4.786;2024-01-25T09:42:23;34.42;;;10.27;;
21038;SDS011;10678;51.002;4.786;2024-01-25T09:44:49;31.27;;;11.18;;
21038;SDS011;10678;51.002;4.786;2024-01-25T09:47:18;29.05;;;10.88;;
21038;SDS011;10678;51.002;4.786;2024-01-25T09:49:46;26.20;;;10.07;;
21038;SDS011;10678;51.002;4.786;2024-01-25T09:52:12;24.52;;;10.13;;
21038;SDS011;10678;51.002;4.786;2024-01-25T09:54:38;29.27;;;10.35;;
21038;SDS011;10678;51.002;4.786;2024-01-25T09:57:14;34.75;;;11.77;;
21038;SDS011;10678;51.002;4.786;2024-01-25T09:59:43;27.15;;;11.10;;
21038;SDS011;10678;51.002;4.786;2024-01-25T10:02:10;26.08;;;11.25;;
21038;SDS011;10678;51.002;4.786;2024-01-25T10:04:36;40.38;;;11.80;;
21038;SDS011;10678;51.002;4.786;2024-01-25T10:07:02;30.15;;;10.73;;
21038;SDS011;10678;51.002;4.786;2024-01-25T10:09:28;22.42;;;9.77;;
21038;SDS011;10678;51.002;4.786;2024-01-25T10:12:02;32.35;;;11.40;;
21038;SDS011;10678;51.002;4.786;2024-01-25T10:14:28;28.30;;;11.60;;
21038;SDS011;10678;51.002;4.786;2024-01-25T10:16:54;26.63;;;10.88;;
21038;SDS011;10678;51.002;4.786;2024-01-25T10:19:20;25.25;;;10.75;;
21038;SDS011;10678;51.002;4.786;2024-01-25T10:21:45;32.13;;;11.88;;
21038;SDS011;10678;51.002;4.786;2024-01-25T10:24:11;27.55;;;11.40;;
21038;SDS011;10678;51.002;4.786;2024-01-25T10:26:38;28.70;;;11.43;;
21038;SDS011;10678;51.002;4.786;2024-01-25T10:29:05;32.08;;;11.35;;
21038;SDS011;10678;51.002;4.786;2024-01-25T10:31:32;34.40;;;11.55;;
21038;SDS011;10678;51.002;4.786;2024-01-25T10:34:03;30.98;;;11.73;;
21038;SDS011;10678;51.002;4.786;2024-01-25T10:36:30;30.20;;;12.63;;
21038;SDS011;10678;51.002;4.786;2024-01-25T10:38:56;32.88;;;11.30;;
21038;SDS011;10678;51.002;4.786;2024-01-25T10:41:24;31.38;;;11.32;;
21038;SDS011;10678;51.002;4.786;2024-01-25T10:43:50;23.45;;;10.40;;
21038;SDS011;10678;51.002;4.786;2024-01-25T10:46:16;29.92;;;10.45;;
21038;SDS011;10678;51.002;4.786;2024-01-25T10:48:41;26.23;;;11.30;;
21038;SDS011;10678;51.002;4.786;2024-01-25T10:51:08;23.98;;;10.68;;
21038;SDS011;10678;51.002;4.786;2024-01-25T10:53:35;26.80;;;10.63;;
21038;SDS011;10678;51.002;4.786;2024-01-25T10:56:02;29.90;;;11.00;;
21038;SDS011;10678;51.002;4.786;2024-01-25T10:58:31;27.25;;;10.57;;
21038;SDS011;10678;51.002;4.786;2024-01-25T11:01:07;30.63;;;11.05;;
21038;SDS011;10678;51.002;4.786;2024-01-25T11:03:35;28.20;;;11.45;;
21038;SDS011;10678;51.002;4.786;2024-01-25T11:06:11;31.08;;;11.82;;
21038;SDS011;10678;51.002;4.786;2024-01-25T11:08:37;28.77;;;11.00;;
21038;SDS011;10678;51.002;4.786;2024-01-25T11:11:11;31.77;;;12.40;;
21038;SDS011;10678;51.002;4.786;2024-01-25T11:13:38;28.05;;;10.68;;
21038;SDS011;10678;51.002;4.786;2024-01-25T11:16:12;30.05;;;11.68;;
21038;SDS011;10678;51.002;4.786;2024-01-25T11:24:04;30.65;;;11.02;;
21038;SDS011;10678;51.002;4.786;2024-01-25T11:26:33;30.85;;;11.82;;
21038;SDS011;10678;51.002;4.786;2024-01-25T11:28:59;31.83;;;12.45;;
21038;SDS011;10678;51.002;4.786;2024-01-25T11:31:26;36.22;;;12.85;;
21038;SDS011;10678;51.002;4.786;2024-01-25T11:34:01;30.70;;;11.85;;
21038;SDS011;10678;51.002;4.786;2024-01-25T11:36:28;37.67;;;12.75;;
21038;SDS011;10678;51.002;4.786;2024-01-25T11:38:54;35.92;;;11.98;;
21038;SDS011;10678;51.002;4.786;2024-01-25T11:41:20;33.20;;;12.60;;
21038;SDS011;10678;51.002;4.786;2024-01-25T11:43:49;28.25;;;11.52;;
21038;SDS011;10678;51.002;4.786;2024-01-25T11:46:15;32.58;;;12.93;;
21038;SDS011;10678;51.002;4.786;2024-01-25T11:48:41;30.60;;;11.38;;
21038;SDS011;10678;51.002;4.786;2024-01-25T11:51:09;35.45;;;13.25;;
21038;SDS011;10678;51.002;4.786;2024-01-25T11:53:36;32.25;;;11.80;;
21038;SDS011;10678;51.002;4.786;2024-01-25T11:56:02;38.03;;;12.38;;
21038;SDS011;10678;51.002;4.786;2024-01-25T11:58:29;33.65;;;13.27;;
21038;SDS011;10678;51.002;4.786;2024-01-25T12:00:54;32.83;;;12.23;;
21038;SDS011;10678;51.002;4.786;2024-01-25T12:03:20;31.05;;;11.05;;
21038;SDS011;10678;51.002;4.786;2024-01-25T12:05:46;35.25;;;12.70;;
21038;SDS011;10678;51.002;4.786;2024-01-25T12:08:12;34.45;;;11.57;;
21038;SDS011;10678;51.002;4.786;2024-01-25T12:10:38;27.92;;;10.98;;
21038;SDS011;10678;51.002;4.786;2024-01-25T12:13:07;33.38;;;11.90;;
21038;SDS011;10678;51.002;4.786;2024-01-25T12:15:34;30.42;;;11.65;;
21038;SDS011;10678;51.002;4.786;2024-01-25T12:18:00;29.70;;;10.73;;
21038;SDS011;10678;51.002;4.786;2024-01-25T12:20:27;34.03;;;11.48;;
21038;SDS011;10678;51.002;4.786;2024-01-25T12:22:53;36.97;;;10.85;;
21038;SDS011;10678;51.002;4.786;2024-01-25T12:25:19;27.55;;;10.95;;
21038;SDS011;10678;51.002;4.786;2024-01-25T12:27:45;30.45;;;11.43;;
21038;SDS011;10678;51.002;4.786;2024-01-25T12:30:14;30.17;;;11.57;;
21038;SDS011;10678;51.002;4.786;2024-01-25T12:32:40;30.73;;;11.75;;
21038;SDS011;10678;51.002;4.786;2024-01-25T12:35:06;29.80;;;10.38;;
21038;SDS011;10678;51.002;4.786;2024-01-25T12:37:33;36.90;;;11.20;;
21038;SDS011;10678;51.002;4.786;2024-01-25T12:39:59;30.73;;;10.85;;
21038;SDS011;10678;51.002;4.786;2024-01-25T12:42:25;33.15;;;10.52;;
21038;SDS011;10678;51.002;4.786;2024-01-25T12:44:53;36.72;;;11.50;;
21038;SDS011;10678;51.002;4.786;2024-01-25T12:47:19;33.97;;;12.10;;
21038;SDS011;10678;51.002;4.786;2024-01-25T12:49:45;29.55;;;9.90;;
21038;SDS011;10678;51.002;4.786;2024-01-25T12:52:11;30.77;;;10.80;;
21038;SDS011;10678;51.002;4.786;2024-01-25T12:54:38;24.73;;;9.13;;
21038;SDS011;10678;51.002;4.786;2024-01-25T12:57:04;26.25;;;9.25;;
21038;SDS011;10678;51.002;4.786;2024-01-25T12:59:31;27.60;;;10.90;;
21038;SDS011;10678;51.002;4.786;2024-01-25T13:01:57;35.17;;;9.98;;
21038;SDS011;10678;51.002;4.786;2024-01-25T13:04:23;31.15;;;9.63;;
21038;SDS011;10678;51.002;4.786;2024-01-25T13:06:50;37.42;;;10.95;;
21038;SDS011;10678;51.002;4.786;2024-01-25T13:09:17;32.80;;;11.15;;
21038;SDS011;10678;51.002;4.786;2024-01-25T13:11:43;30.77;;;10.55;;
21038;SDS011;10678;51.002;4.786;2024-01-25T13:14:09;43.47;;;10.85;;
21038;SDS011;10678;51.002;4.786;2024-01-25T13:16:34;32.97;;;11.93;;
21038;SDS011;10678;51.002;4.786;2024-01-25T13:19:00;32.58;;;10.25;;
21038;SDS011;10678;51.002;4.786;2024-01-25T13:21:26;31.65;;;11.05;;
21038;SDS011;10678;51.002;4.786;2024-01-25T13:23:52;33.95;;;10.98;;
21038;SDS011;10678;51.002;4.786;2024-01-25T13:26:17;27.55;;;8.82;;
21038;SDS011;10678;51.002;4.786;2024-01-25T13:28:43;28.58;;;11.40;;
21038;SDS011;10678;51.002;4.786;2024-01-25T13:31:08;37.28;;;11.00;;
21038;SDS011;10678;51.002;4.786;2024-01-25T13:33:34;37.60;;;12.02;;
21038;SDS011;10678;51.002;4.786;2024-01-25T13:36:00;31.95;;;11.35;;
21038;SDS011;10678;51.002;4.786;2024-01-25T13:38:25;33.60;;;11.55;;
21038;SDS011;10678;51.002;4.786;2024-01-25T13:40:51;34.28;;;11.25;;
21038;SDS011;10678;51.002;4.786;2024-01-25T13:43:17;35.38;;;10.95;;
21038;SDS011;10678;51.002;4.786;2024-01-25T13:45:43;29.48;;;10.82;;
21038;SDS011;10678;51.002;4.786;2024-01-25T13:48:08;35.58;;;11.68;;
21038;SDS011;10678;51.002;4.786;2024-01-25T13:50:34;33.35;;;11.93;;
21038;SDS011;10678;51.002;4.786;2024-01-25T13:53:01;28.33;;;12.07;;
21038;SDS011;10678;51.002;4.786;2024-01-25T13:55:26;28.70;;;11.88;;
21038;SDS011;10678;51.002;4.786;2024-01-25T13:57:52;30.63;;;11.25;;
21038;SDS011;10678;51.002;4.786;2024-01-25T14:00:18;31.75;;;11.45;;
21038;SDS011;10678;51.002;4.786;2024-01-25T14:02:44;28.80;;;10.75;;
21038;SDS011;10678;51.002;4.786;2024-01-25T14:05:10;34.03;;;11.10;;
21038;SDS011;10678;51.002;4.786;2024-01-25T14:07:36;27.17;;;11.02;;
21038;SDS011;10678;51.002;4.786;2024-01-25T14:10:02;28.88;;;10.07;;
21038;SDS011;10678;51.002;4.786;2024-01-25T14:12:28;32.05;;;9.70;;
21038;SDS011;10678;51.002;4.786;2024-01-25T14:14:54;23.70;;;9.68;;
21038;SDS011;10678;51.002;4.786;2024-01-25T14:17:19;23.15;;;8.60;;
21038;SDS011;10678;51.002;4.786;2024-01-25T14:19:46;24.17;;;8.65;;
21038;SDS011;10678;51.002;4.786;2024-01-25T14:22:12;24.95;;;9.00;;
21038;SDS011;10678;51.002;4.786;2024-01-25T14:24:37;26.30;;;9.10;;
21038;SDS011;10678;51.002;4.786;2024-01-25T14:27:03;22.40;;;9.80;;
21038;SDS011;10678;51.002;4.786;2024-01-25T14:29:29;22.75;;;8.55;;